createdAt,value
2022-10-09T00:01:13.227Z,100502.16
2022-10-09T00:04:16.174Z,100501.31
2022-10-09T00:07:18.718Z,100504.28
2022-10-09T00:10:21.928Z,100498.97
2022-10-09T00:13:24.650Z,100494.63
2022-10-09T00:16:27.663Z,100505.44
2022-10-09T00:19:30.204Z,100494.94
2022-10-09T00:22:33.714Z,100503.75
2022-10-09T00:25:36.717Z,100496.22
2022-10-09T00:28:39.520Z,100497.22
2022-10-09T00:31:42.075Z,100495.69
2022-10-09T00:34:44.990Z,100490.66
2022-10-09T00:37:48.673Z,100494.03
2022-10-09T00:40:52.105Z,100488.44
2022-10-09T00:44:00.068Z,100478.19
2022-10-09T00:47:03.411Z,100488.44
2022-10-09T00:50:13.303Z,100480.72
2022-10-09T00:53:18.521Z,100474.84
2022-10-09T00:56:21.249Z,100471.06
2022-10-09T00:59:24.672Z,100468.91
2022-10-09T01:02:27.499Z,100476.06
2022-10-09T01:05:49.148Z,100462.75
2022-10-09T01:08:56.557Z,100465.88
2022-10-09T01:12:06.890Z,100457.87
2022-10-09T01:15:18.988Z,100453.72
2022-10-09T01:18:34.113Z,100459.34
2022-10-09T01:22:03.324Z,100457.50
2022-10-09T01:25:08.295Z,100454.63
2022-10-09T01:28:11.255Z,100460.53
2022-10-09T01:31:14.914Z,100455.38
2022-10-09T01:34:19.130Z,100445.72
2022-10-09T01:37:22.420Z,100450.19
2022-10-09T01:43:28.490Z,100460.31
2022-10-09T01:46:32.784Z,100456.97
2022-10-09T01:49:45.848Z,100465.38
2022-10-09T01:52:53.999Z,100459.06
2022-10-09T01:56:02.751Z,100461.72
2022-10-09T01:59:15.676Z,100466.66
2022-10-09T02:02:20.024Z,100469.47
2022-10-09T02:05:27.111Z,100479.56
2022-10-09T02:08:30.806Z,100482.81
2022-10-09T02:11:35.694Z,100480.00
2022-10-09T02:14:39.571Z,100474.16
2022-10-09T02:17:49.633Z,100480.63
2022-10-09T02:20:55.701Z,100474.31
2022-10-09T02:23:58.938Z,100483.28
2022-10-09T02:27:02.348Z,100480.75
2022-10-09T02:30:07.834Z,100485.38
2022-10-09T02:33:10.397Z,100485.38
2022-10-09T02:36:14.358Z,100494.34
2022-10-09T02:39:17.026Z,100493.38
2022-10-09T02:42:19.830Z,100494.34
2022-10-09T02:45:22.344Z,100494.34
2022-10-09T02:48:25.370Z,100496.19
2022-10-09T02:51:27.906Z,100508.50
2022-10-09T02:54:30.925Z,100505.84
2022-10-09T02:57:33.416Z,100504.31
2022-10-09T03:00:38.209Z,100497.59
2022-10-09T03:03:40.837Z,100506.13
2022-10-09T03:06:43.619Z,100516.06
2022-10-09T03:09:46.103Z,100518.75
2022-10-09T03:12:49.226Z,100515.37
2022-10-09T03:15:52.143Z,100523.78
2022-10-09T03:18:55.177Z,100511.16
2022-10-09T03:21:57.667Z,100512.31
2022-10-09T03:25:00.500Z,100516.78
2022-10-09T03:28:03.177Z,100517.63
2022-10-09T03:31:06.806Z,100523.22
2022-10-09T03:34:11.243Z,100524.06
2022-10-09T03:37:14.193Z,100521.56
2022-10-09T03:40:16.975Z,100533.03
2022-10-09T03:43:19.797Z,100537.06
2022-10-09T03:46:22.345Z,100530.06
2022-10-09T03:49:25.129Z,100531.91
2022-10-09T03:52:27.761Z,100537.91
2022-10-09T03:55:30.689Z,100529.63
2022-10-09T03:58:33.409Z,100536.56
2022-10-09T04:01:36.610Z,100531.34
2022-10-09T04:04:39.397Z,100540.56
2022-10-09T04:07:41.881Z,100539.59
2022-10-09T04:10:48.081Z,100539.03
2022-10-09T04:13:50.583Z,100545.41
2022-10-09T04:16:53.402Z,100551.03
2022-10-09T04:19:55.852Z,100553.31
2022-10-09T04:22:58.598Z,100549.31
2022-10-09T04:26:01.215Z,100527.56
2022-10-09T04:29:03.999Z,100540.69
2022-10-09T04:32:07.072Z,100548.41
2022-10-09T04:35:09.918Z,100545.59
2022-10-09T04:38:12.785Z,100534.34
2022-10-09T04:41:15.693Z,100546.97
2022-10-09T04:44:18.304Z,100565.84
2022-10-09T04:47:21.175Z,100573.75
2022-10-09T04:50:24.189Z,100579.63
2022-10-09T04:53:34.114Z,100580.47
2022-10-09T04:56:36.672Z,100565.16
2022-10-09T04:59:39.526Z,100567.78
2022-10-09T05:02:42.008Z,100568.47
2022-10-09T05:06:07.290Z,100584.47
2022-10-09T05:09:11.114Z,100611.09
2022-10-09T05:12:14.039Z,100619.13
2022-10-09T05:15:16.548Z,100614.53
2022-10-09T05:18:19.400Z,100603.94
2022-10-09T05:21:22.571Z,100605.28
2022-10-09T05:24:25.405Z,100602.91
2022-10-09T05:27:27.928Z,100598.84
2022-10-09T05:30:30.755Z,100599.78
2022-10-09T05:33:33.807Z,100597.50
2022-10-09T05:36:36.701Z,100586.81
2022-10-09T05:39:39.573Z,100615.16
2022-10-09T05:42:44.617Z,100614.69
2022-10-09T05:45:47.255Z,100630.63
2022-10-09T05:48:58.775Z,100630.91
2022-10-09T05:52:04.407Z,100627.09
2022-10-09T05:55:07.571Z,100622.97
2022-10-09T05:58:10.224Z,100627.91
2022-10-09T06:01:13.103Z,100638.50
2022-10-09T06:04:21.824Z,100636.47
2022-10-09T06:07:24.312Z,100632.91
2022-10-09T06:10:32.078Z,100638.41
2022-10-09T06:13:35.210Z,100631.56
2022-10-09T06:16:40.535Z,100637.59
2022-10-09T06:19:43.291Z,100642.81
2022-10-09T06:22:46.315Z,100655.16
2022-10-09T06:25:57.350Z,100665.53
2022-10-09T06:29:01.664Z,100666.53
2022-10-09T06:32:07.191Z,100662.53
2022-10-09T06:35:09.942Z,100676.03
2022-10-09T06:38:12.533Z,100676.00
2022-10-09T06:41:20.593Z,100671.66
2022-10-09T06:44:23.462Z,100679.03
2022-10-09T06:47:26.251Z,100684.22
2022-10-09T06:50:28.987Z,100687.56
2022-10-09T06:53:35.573Z,100690.06
2022-10-09T06:56:39.892Z,100687.19
2022-10-09T06:59:43.013Z,100697.22
2022-10-09T07:02:45.739Z,100694.41
2022-10-09T07:05:48.848Z,100697.50
2022-10-09T07:08:59.350Z,100703.53
2022-10-09T07:12:02.188Z,100702.72
2022-10-09T07:15:06.255Z,100711.28
2022-10-09T07:18:09.066Z,100702.06
2022-10-09T07:21:11.733Z,100710.75
2022-10-09T07:24:14.675Z,100709.75
2022-10-09T07:27:17.941Z,100714.63
2022-10-09T07:30:21.921Z,100719.44
2022-10-09T07:33:24.434Z,100728.19
2022-10-09T07:36:27.399Z,100726.69
2022-10-09T07:39:29.902Z,100724.84
2022-10-09T07:42:32.738Z,100730.31
2022-10-09T07:45:35.501Z,100724.78
2022-10-09T07:48:38.673Z,100730.59
2022-10-09T07:51:41.173Z,100731.53
2022-10-09T07:54:44.033Z,100727.50
2022-10-09T07:57:46.556Z,100728.63
2022-10-09T08:00:49.559Z,100738.22
2022-10-09T08:03:52.314Z,100734.91
2022-10-09T08:06:58.322Z,100740.59
2022-10-09T08:10:01.230Z,100736.25
2022-10-09T08:13:03.902Z,100740.44
2022-10-09T08:16:07.487Z,100736.88
2022-10-09T08:19:10.073Z,100737.00
2022-10-09T08:22:12.846Z,100730.75
2022-10-09T08:25:15.425Z,100739.59
2022-10-09T08:28:18.707Z,100735.37
2022-10-09T08:31:21.619Z,100749.28
2022-10-09T08:34:24.483Z,100746.66
2022-10-09T08:37:26.932Z,100742.59
2022-10-09T08:40:58.144Z,100754.12
2022-10-09T08:44:02.705Z,100750.22
2022-10-09T08:47:12.342Z,100752.53
2022-10-09T08:50:26.095Z,100753.72
2022-10-09T08:53:38.460Z,100769.41
2022-10-09T08:56:42.990Z,100765.13
2022-10-09T08:59:51.381Z,100773.00
2022-10-09T09:03:52.168Z,100767.75
2022-10-09T09:07:05.866Z,100778.88
2022-10-09T09:10:37.565Z,100775.53
2022-10-09T09:14:17.309Z,100774.34
2022-10-09T09:17:22.398Z,100776.13
2022-10-09T09:20:27.040Z,100786.63
2022-10-09T09:23:32.967Z,100782.87
2022-10-09T09:26:35.843Z,100790.13
2022-10-09T09:29:45.526Z,100787.09
2022-10-09T09:33:07.518Z,100788.25
2022-10-09T09:36:27.307Z,100789.63
2022-10-09T09:42:57.105Z,100789.56
2022-10-09T09:46:01.221Z,100792.22
2022-10-09T09:49:08.574Z,100793.25
2022-10-09T09:52:14.150Z,100788.34
2022-10-09T09:55:29.276Z,100792.19
2022-10-09T09:58:38.871Z,100793.47
2022-10-09T10:01:41.466Z,100796.87
2022-10-09T10:04:57.810Z,100796.97
2022-10-09T10:08:00.314Z,100799.13
2022-10-09T10:11:06.433Z,100806.22
2022-10-09T10:14:09.707Z,100799.75
2022-10-09T10:17:25.564Z,100800.63
2022-10-09T10:20:29.416Z,100812.28
2022-10-09T10:23:41.554Z,100802.09
2022-10-09T10:26:50.789Z,100797.72
2022-10-09T10:29:57.597Z,100804.16
2022-10-09T10:33:25.113Z,100802.28
2022-10-09T10:36:28.801Z,100794.91
2022-10-09T10:39:39.959Z,100795.31
2022-10-09T10:42:49.307Z,100798.78
2022-10-09T10:46:10.135Z,100796.44
2022-10-09T10:49:16.216Z,100802.06
2022-10-09T10:52:40.546Z,100800.34
2022-10-09T10:56:19.495Z,100799.91
2022-10-09T10:59:46.971Z,100800.47
2022-10-09T11:03:08.237Z,100798.38
2022-10-09T11:06:26.379Z,100795.25
2022-10-09T11:09:35.121Z,100791.03
2022-10-09T11:12:48.699Z,100790.88
2022-10-09T11:15:57.562Z,100791.41
2022-10-09T11:19:09.963Z,100784.25
2022-10-09T11:22:12.773Z,100778.72
2022-10-09T11:25:39.389Z,100778.16
2022-10-09T11:29:21.404Z,100781.09
2022-10-09T11:32:30.901Z,100778.44
2022-10-09T11:35:47.042Z,100771.78
2022-10-09T11:38:53.672Z,100779.69
2022-10-09T11:41:57.127Z,100771.16
2022-10-09T11:48:45.741Z,100770.75
2022-10-09T11:52:07.646Z,100768.09
2022-10-09T11:55:23.823Z,100768.50
2022-10-09T11:58:26.416Z,100765.97
2022-10-09T12:01:38.494Z,100767.22
2022-10-09T12:04:54.410Z,100765.94
2022-10-09T12:08:18.261Z,100760.50
2022-10-09T12:11:23.691Z,100763.41
2022-10-09T12:14:27.242Z,100754.06
2022-10-09T12:17:36.453Z,100765.87
2022-10-09T12:20:40.575Z,100760.50
2022-10-09T12:23:47.231Z,100748.87
2022-10-09T12:26:51.311Z,100761.34
2022-10-09T12:29:56.917Z,100764.03
2022-10-09T12:33:05.146Z,100757.59
2022-10-09T12:36:29.043Z,100755.50
2022-10-09T12:39:33.799Z,100754.25
2022-10-09T12:42:36.787Z,100755.44
2022-10-09T12:45:43.599Z,100749.41
2022-10-09T12:48:46.539Z,100749.00
2022-10-09T12:51:56.107Z,100741.56
2022-10-09T12:55:02.788Z,100734.31
2022-10-09T12:58:09.263Z,100737.25
2022-10-09T13:01:15.005Z,100743.28
2022-10-09T13:04:27.471Z,100730.62
2022-10-09T13:07:32.472Z,100728.94
2022-10-09T13:10:36.525Z,100723.12
2022-10-09T13:13:39.815Z,100716.91
2022-10-09T13:17:04.164Z,100721.72
2022-10-09T13:20:16.599Z,100719.44
2022-10-09T13:23:29.120Z,100719.88
2022-10-09T13:26:33.698Z,100719.25
2022-10-09T13:29:36.282Z,100714.06
2022-10-09T13:32:39.476Z,100713.03
2022-10-09T13:35:42.693Z,100709.53
2022-10-09T13:38:45.797Z,100707.66
2022-10-09T13:41:49.366Z,100712.66
2022-10-09T13:44:52.371Z,100701.19
2022-10-09T13:47:54.988Z,100707.22
2022-10-09T13:51:00.783Z,100701.19
2022-10-09T13:54:03.471Z,100693.69
2022-10-09T13:57:06.343Z,100694.53
2022-10-09T14:00:09.529Z,100697.84
2022-10-09T14:03:14.822Z,100699.72
2022-10-09T14:06:18.112Z,100699.50
2022-10-09T14:09:21.184Z,100705.53
2022-10-09T14:12:24.425Z,100701.78
2022-10-09T14:15:27.023Z,100698.41
2022-10-09T14:18:29.948Z,100699.28
2022-10-09T14:21:33.221Z,100705.06
2022-10-09T14:24:37.052Z,100703.59
2022-10-09T14:27:42.671Z,100702.34
2022-10-09T14:30:47.405Z,100708.78
2022-10-09T14:33:50.205Z,100708.94
2022-10-09T14:36:53.557Z,100705.16
2022-10-09T14:39:57.288Z,100709.94
2022-10-09T14:43:03.672Z,100697.41
2022-10-09T14:46:13.040Z,100711.53
2022-10-09T14:49:16.130Z,100706.72
2022-10-09T14:52:19.165Z,100702.97
2022-10-09T14:55:23.645Z,100703.78
2022-10-09T14:58:28.447Z,100706.78
2022-10-09T15:01:32.295Z,100698.47
2022-10-09T15:04:34.968Z,100697.16
2022-10-09T15:07:37.770Z,100712.44
2022-10-09T15:10:41.228Z,100704.56
2022-10-09T15:13:44.099Z,100705.53
2022-10-09T15:16:47.044Z,100717.31
2022-10-09T15:19:49.874Z,100717.38
2022-10-09T15:22:52.424Z,100720.53
2022-10-09T15:25:57.516Z,100720.38
2022-10-09T15:29:01.893Z,100724.06
2022-10-09T15:32:04.808Z,100721.16
2022-10-09T15:35:07.959Z,100723.59
2022-10-09T15:38:19.153Z,100728.34
2022-10-09T15:41:22.047Z,100728.63
2022-10-09T15:44:24.875Z,100723.81
2022-10-09T15:47:50.116Z,100736.59
2022-10-09T15:50:52.206Z,100733.38
2022-10-09T15:53:56.156Z,100729.97
2022-10-09T15:56:59.037Z,100740.47
2022-10-09T16:00:01.696Z,100733.44
2022-10-09T16:03:07.667Z,100737.34
2022-10-09T16:06:13.040Z,100741.19
2022-10-09T16:09:16.048Z,100746.22
2022-10-09T16:12:19.382Z,100745.94
2022-10-09T16:15:22.320Z,100738.41
2022-10-09T16:18:25.511Z,100759.78
2022-10-09T16:21:28.981Z,100755.44
2022-10-09T16:24:32.408Z,100760.38
2022-10-09T16:27:35.599Z,100760.25
2022-10-09T16:30:43.757Z,100766.56
2022-10-09T16:33:47.802Z,100773.00
2022-10-09T16:36:52.532Z,100766.28
2022-10-09T16:40:11.864Z,100776.22
2022-10-09T16:43:15.727Z,100783.47
2022-10-09T16:46:24.539Z,100791.88
2022-10-09T16:49:27.876Z,100788.34
2022-10-09T16:52:34.378Z,100781.34
2022-10-09T16:55:38.235Z,100785.41
2022-10-09T16:58:42.569Z,100791.47
2022-10-09T17:01:47.741Z,100788.63
2022-10-09T17:04:50.907Z,100794.84
2022-10-09T17:07:54.544Z,100796.87
2022-10-09T17:10:57.210Z,100792.66
2022-10-09T17:14:00.321Z,100796.03
2022-10-09T17:17:04.525Z,100805.06
2022-10-09T17:20:09.287Z,100808.72
2022-10-09T17:23:11.982Z,100805.19
2022-10-09T17:26:17.999Z,100808.03
2022-10-09T17:29:21.465Z,100805.19
2022-10-09T17:32:25.305Z,100807.03
2022-10-09T17:35:28.570Z,100813.03
2022-10-09T17:38:31.574Z,100820.75
2022-10-09T17:41:34.277Z,100818.41
2022-10-09T17:44:37.141Z,100823.41
2022-10-09T17:47:39.667Z,100823.19
2022-10-09T17:50:57.914Z,100835.41
2022-10-09T17:54:05.875Z,100829.38
2022-10-09T17:57:14.830Z,100831.38
2022-10-09T18:00:21.683Z,100831.16
2022-10-09T18:03:27.534Z,100832.81
2022-10-09T18:06:34.515Z,100834.13
2022-10-09T18:09:45.207Z,100825.59
2022-10-09T18:12:51.032Z,100825.56
2022-10-09T18:15:54.279Z,100833.84
2022-10-09T18:19:00.867Z,100830.22
2022-10-09T18:22:03.994Z,100837.25
2022-10-09T18:25:12.660Z,100830.78
2022-10-09T18:28:19.751Z,100828.97
2022-10-09T18:31:28.146Z,100828.84
2022-10-09T18:34:33.715Z,100831.75
2022-10-09T18:37:42.042Z,100841.44
2022-10-09T18:41:25.837Z,100839.22
2022-10-09T18:44:33.020Z,100841.66
2022-10-09T18:47:37.907Z,100840.13
2022-10-09T18:50:45.051Z,100847.97
2022-10-09T18:53:53.402Z,100851.00
2022-10-09T18:56:57.131Z,100849.47
2022-10-09T19:00:02.222Z,100855.00
2022-10-09T19:03:05.344Z,100856.81
2022-10-09T19:06:09.539Z,100864.00
2022-10-09T19:09:14.862Z,100864.09
2022-10-09T19:12:19.070Z,100860.78
2022-10-09T19:15:22.286Z,100871.59
2022-10-09T19:18:26.593Z,100865.25
2022-10-09T19:21:29.339Z,100878.31
2022-10-09T19:24:34.297Z,100880.47
2022-10-09T19:27:37.423Z,100878.91
2022-10-09T19:30:43.522Z,100887.09
2022-10-09T19:33:46.144Z,100890.00
2022-10-09T19:36:50.223Z,100893.09
2022-10-09T19:39:52.716Z,100905.97
2022-10-09T19:42:55.647Z,100908.44
2022-10-09T19:46:07.037Z,100909.91
2022-10-09T19:49:10.023Z,100902.22
2022-10-09T19:52:12.636Z,100903.66
2022-10-09T19:55:16.367Z,100908.84
2022-10-09T19:58:19.162Z,100917.34
2022-10-09T20:01:24.270Z,100919.97
2022-10-09T20:04:27.231Z,100920.88
2022-10-09T20:07:29.865Z,100920.72
2022-10-09T20:10:37.236Z,100924.19
2022-10-09T20:13:44.759Z,100920.66
2022-10-09T20:16:47.618Z,100923.66
2022-10-09T20:19:50.732Z,100932.25
2022-10-09T20:22:54.406Z,100930.56
2022-10-09T20:26:11.825Z,100929.19
2022-10-09T20:29:14.654Z,100930.56
2022-10-09T20:32:18.075Z,100925.69
2022-10-09T20:35:23.957Z,100925.69
2022-10-09T20:38:26.545Z,100930.97
2022-10-09T20:41:30.587Z,100924.78
2022-10-09T20:44:33.142Z,100934.94
2022-10-09T20:47:37.369Z,100935.63
2022-10-09T20:50:41.733Z,100938.28
2022-10-09T20:53:45.345Z,100942.56
2022-10-09T20:56:48.274Z,100942.59
2022-10-09T20:59:51.022Z,100940.50
2022-10-09T21:02:53.586Z,100940.38
2022-10-09T21:05:56.337Z,100939.84
2022-10-09T21:08:58.918Z,100941.91
2022-10-09T21:12:02.398Z,100937.19
2022-10-09T21:15:06.034Z,100945.19
2022-10-09T21:18:09.031Z,100940.16
2022-10-09T21:21:15.394Z,100936.09
2022-10-09T21:24:18.343Z,100940.75
2022-10-09T21:27:20.928Z,100938.37
2022-10-09T21:30:23.846Z,100937.25
2022-10-09T21:33:26.319Z,100941.59
2022-10-09T21:36:29.089Z,100927.47
2022-10-09T21:39:31.690Z,100941.66
2022-10-09T21:42:34.505Z,100935.19
2022-10-09T21:45:38.116Z,100933.34
2022-10-09T21:48:41.066Z,100922.97
2022-10-09T21:51:43.509Z,100931.97
2022-10-09T21:54:46.369Z,100928.97
2022-10-09T21:57:49.232Z,100932.13
2022-10-09T22:01:00.127Z,100925.41
2022-10-09T22:04:03.358Z,100926.62
2022-10-09T22:07:05.897Z,100924.03
2022-10-09T22:10:09.149Z,100929.91
2022-10-09T22:13:12.001Z,100914.94
2022-10-09T22:16:15.695Z,100921.41
2022-10-09T22:19:18.995Z,100929.13
2022-10-09T22:22:23.743Z,100927.19
2022-10-09T22:25:26.265Z,100922.84
2022-10-09T22:28:29.440Z,100934.91
2022-10-09T22:31:31.961Z,100928.78
2022-10-09T22:34:34.789Z,100926.25
2022-10-09T22:37:37.209Z,100926.50
2022-10-09T22:40:41.853Z,100930.91
2022-10-09T22:43:51.620Z,100928.53
2022-10-09T22:46:54.495Z,100931.87
2022-10-09T22:49:57.453Z,100925.59
2022-10-09T22:53:00.201Z,100921.97
2022-10-09T22:56:07.199Z,100924.63
2022-10-09T22:59:11.780Z,100928.84
2022-10-09T23:02:14.932Z,100920.31
2022-10-09T23:05:17.764Z,100923.09
2022-10-09T23:08:20.255Z,100920.03
2022-10-09T23:11:23.377Z,100928.03
2022-10-09T23:14:26.313Z,100927.31
2022-10-09T23:17:29.104Z,100933.09
2022-10-09T23:20:36.273Z,100937.97
2022-10-09T23:23:39.748Z,100940.97
2022-10-09T23:26:42.269Z,100944.91
2022-10-09T23:29:45.815Z,100952.31
2022-10-09T23:32:48.548Z,100947.28
2022-10-09T23:35:51.626Z,100945.72
2022-10-09T23:38:54.697Z,100952.34
2022-10-09T23:41:57.469Z,100941.53
2022-10-09T23:45:00.001Z,100943.50
2022-10-09T23:48:02.780Z,100945.03
2022-10-09T23:51:06.582Z,100939.16
2022-10-09T23:54:09.893Z,100938.03
2022-10-09T23:57:12.415Z,100939.84
